createdAt,value
2018-12-11T00:00:22.143Z,448.17
2018-12-11T00:03:19.252Z,464.67
2018-12-11T00:06:18.570Z,460.07
2018-12-11T00:09:14.637Z,464.85
2018-12-11T00:12:11.796Z,465.50
2018-12-11T00:15:07.990Z,469.65
2018-12-11T00:18:04.597Z,442.27
2018-12-11T00:21:00.860Z,411.05
2018-12-11T00:23:57.788Z,442.18
2018-12-11T00:26:53.916Z,445.38
2018-12-11T00:29:49.797Z,485.00
2018-12-11T00:32:46.324Z,462.40
2018-12-11T00:35:45.500Z,463.98
2018-12-11T00:38:41.706Z,467.15
2018-12-11T00:41:37.680Z,432.62
2018-12-11T00:44:34.085Z,398.73
2018-12-11T00:47:30.096Z,360.77
2018-12-11T00:50:26.259Z,346.62
2018-12-11T00:53:22.347Z,323.20
2018-12-11T00:56:18.626Z,337.10
2018-12-11T00:59:14.910Z,328.10
2018-12-11T01:02:11.309Z,350.40
2018-12-11T01:05:07.634Z,350.10
2018-12-11T01:08:03.928Z,353.12
2018-12-11T01:11:00.288Z,353.10
2018-12-11T01:13:58.014Z,346.25
2018-12-11T01:16:54.140Z,347.05
2018-12-11T01:19:50.379Z,357.67
2018-12-11T01:22:46.676Z,344.45
2018-12-11T01:25:42.876Z,349.65
2018-12-11T01:28:39.155Z,357.98
2018-12-11T01:31:35.895Z,386.30
2018-12-11T01:34:32.211Z,411.50
2018-12-11T01:37:28.724Z,415.88
2018-12-11T01:40:24.879Z,384.32
2018-12-11T01:43:21.043Z,408.15
2018-12-11T01:46:17.068Z,393.12
2018-12-11T01:49:20.649Z,421.75
2018-12-11T01:52:17.568Z,455.50
2018-12-11T01:55:13.883Z,430.27
2018-12-11T01:58:10.091Z,446.10
2018-12-11T02:01:07.377Z,407.50
2018-12-11T02:04:06.983Z,424.90
2018-12-11T02:07:03.309Z,429.98
2018-12-11T02:10:00.099Z,422.67
2018-12-11T02:12:56.102Z,412.30
2018-12-11T02:15:52.399Z,399.95
2018-12-11T02:18:55.559Z,352.87
2018-12-11T02:21:51.118Z,355.35
2018-12-11T02:24:47.109Z,369.77
2018-12-11T02:27:43.508Z,346.23
2018-12-11T02:30:39.459Z,339.72
2018-12-11T02:33:35.941Z,345.33
2018-12-11T02:36:32.102Z,362.70
2018-12-11T02:39:28.498Z,293.73
2018-12-11T02:42:24.612Z,283.87
2018-12-11T02:45:20.959Z,271.13
2018-12-11T02:48:17.540Z,269.75
2018-12-11T02:51:14.105Z,295.40
2018-12-11T02:54:10.348Z,310.08
2018-12-11T02:57:06.461Z,304.98
2018-12-11T03:00:03.663Z,299.70
2018-12-11T03:02:59.546Z,302.87
2018-12-11T03:05:55.799Z,281.65
2018-12-11T03:08:51.993Z,256.43
2018-12-11T03:11:48.546Z,243.75
2018-12-11T03:14:45.360Z,256.00
2018-12-11T03:17:41.993Z,254.45
2018-12-11T03:20:38.130Z,254.35
2018-12-11T03:23:34.268Z,288.30
2018-12-11T03:26:31.055Z,256.35
2018-12-11T03:29:29.694Z,249.47
2018-12-11T03:32:25.655Z,244.93
2018-12-11T03:35:21.577Z,273.43
2018-12-11T03:38:17.953Z,285.02
2018-12-11T03:41:14.188Z,282.73
2018-12-11T03:44:10.351Z,272.65
2018-12-11T03:47:06.260Z,274.80
2018-12-11T03:50:02.775Z,301.67
2018-12-11T03:52:58.857Z,289.40
2018-12-11T03:55:55.852Z,296.60
2018-12-11T03:58:52.474Z,305.07
2018-12-11T04:01:49.543Z,280.00
2018-12-11T04:04:45.680Z,283.87
2018-12-11T04:15:09.481Z,302.45
2018-12-11T04:18:07.509Z,301.12
2018-12-11T04:21:04.712Z,301.37
2018-12-11T04:24:03.044Z,295.88
2018-12-11T04:27:00.463Z,370.67
2018-12-11T04:29:56.740Z,286.15
2018-12-11T04:32:54.065Z,304.50
2018-12-11T04:35:52.335Z,304.38
2018-12-11T04:38:49.762Z,306.50
2018-12-11T04:41:46.807Z,288.75
2018-12-11T04:44:44.630Z,298.95
2018-12-11T04:47:42.137Z,314.15
2018-12-11T04:50:39.603Z,316.12
2018-12-11T04:54:10.626Z,315.87
2018-12-11T04:57:08.024Z,311.20
2018-12-11T05:00:09.356Z,281.27
2018-12-11T05:03:43.572Z,298.50
2018-12-11T05:06:41.517Z,292.37
2018-12-11T05:09:40.247Z,289.70
2018-12-11T05:12:47.133Z,320.48
2018-12-11T05:15:51.146Z,294.93
2018-12-11T05:18:57.209Z,293.88
2018-12-11T05:36:22.513Z,306.57
2018-12-11T05:39:26.609Z,300.98
2018-12-11T05:42:25.185Z,321.32
2018-12-11T05:45:24.363Z,300.85
2018-12-11T05:48:38.464Z,302.65
2018-12-11T05:52:09.203Z,316.88
2018-12-11T06:03:26.801Z,310.10
2018-12-11T06:10:39.991Z,316.95
2018-12-11T06:13:44.865Z,324.42
2018-12-11T06:16:48.420Z,329.57
2018-12-11T06:19:51.487Z,325.93
2018-12-11T06:22:58.151Z,313.85
2018-12-11T06:26:06.835Z,311.73
2018-12-11T06:29:32.864Z,318.35
2018-12-11T06:32:44.768Z,317.82
2018-12-11T06:35:45.051Z,341.17
2018-12-11T06:38:45.728Z,322.20
2018-12-11T06:41:58.435Z,331.05
2018-12-11T06:44:56.238Z,302.25
2018-12-11T06:48:03.951Z,316.88
2018-12-11T06:51:05.533Z,307.92
2018-12-11T06:54:18.106Z,319.02
2018-12-11T06:57:38.820Z,322.42
2018-12-11T07:01:05.513Z,298.05
2018-12-11T07:04:23.619Z,317.35
2018-12-11T07:11:11.984Z,359.48
2018-12-11T07:14:35.748Z,338.02
2018-12-11T07:17:52.052Z,342.55
2018-12-11T07:20:52.142Z,333.80
2018-12-11T07:23:52.567Z,327.35
2018-12-11T07:27:10.486Z,354.57
2018-12-11T07:30:18.156Z,346.98
2018-12-11T07:33:23.441Z,334.98
2018-12-11T07:36:23.578Z,370.45
2018-12-11T07:39:22.077Z,361.60
2018-12-11T07:42:29.232Z,361.15
2018-12-11T07:45:42.995Z,369.85
2018-12-11T07:48:50.470Z,349.55
2018-12-11T07:52:08.715Z,342.40
2018-12-11T07:55:36.742Z,358.35
2018-12-11T07:58:48.890Z,334.35
2018-12-11T08:02:18.634Z,348.70
2018-12-11T08:05:53.794Z,353.32
2018-12-11T08:09:42.610Z,332.45
2018-12-11T08:12:57.940Z,276.18
2018-12-11T08:16:09.572Z,288.62
2018-12-11T08:19:07.626Z,271.60
2018-12-11T08:22:04.522Z,275.85
2018-12-11T08:28:54.494Z,228.27
2018-12-11T08:32:14.379Z,219.32
2018-12-11T08:35:29.897Z,213.75
2018-12-11T08:38:30.169Z,229.13
2018-12-11T08:41:31.826Z,241.05
2018-12-11T08:44:32.987Z,233.17
2018-12-11T08:50:46.016Z,225.93
2018-12-11T08:53:44.172Z,223.97
2018-12-11T08:56:41.792Z,238.80
2018-12-11T08:59:39.730Z,208.82
2018-12-11T09:02:39.077Z,224.82
2018-12-11T09:05:36.070Z,221.40
2018-12-11T09:08:38.105Z,245.05
2018-12-11T09:11:40.999Z,228.22
2018-12-11T09:14:38.585Z,231.45
2018-12-11T09:17:36.745Z,230.67
2018-12-11T09:20:37.543Z,254.50
2018-12-11T09:23:38.686Z,227.55
2018-12-11T09:26:36.533Z,234.47
2018-12-11T09:29:36.403Z,233.43
2018-12-11T09:32:35.963Z,246.68
2018-12-11T09:35:34.813Z,242.72
2018-12-11T09:38:33.631Z,249.92
2018-12-11T09:41:32.459Z,254.13
2018-12-11T09:44:31.285Z,237.12
2018-12-11T09:47:30.046Z,259.27
2018-12-11T09:50:29.606Z,253.12
2018-12-11T09:53:31.969Z,268.50
2018-12-11T09:56:33.307Z,271.90
2018-12-11T09:59:38.325Z,270.15
2018-12-11T10:02:58.115Z,277.15
2018-12-11T10:06:11.145Z,279.25
2018-12-11T10:09:17.744Z,275.07
2018-12-11T10:12:17.352Z,278.85
2018-12-11T10:15:15.009Z,291.85
2018-12-11T10:18:13.430Z,273.48
2018-12-11T10:21:10.937Z,281.10
2018-12-11T10:24:18.246Z,294.13
2018-12-11T10:27:18.139Z,277.85
2018-12-11T10:30:21.211Z,262.25
2018-12-11T10:33:29.285Z,289.23
2018-12-11T10:36:28.723Z,274.58
2018-12-11T10:39:29.209Z,270.20
2018-12-11T10:42:28.029Z,266.08
2018-12-11T10:45:30.965Z,255.95
2018-12-11T10:48:37.307Z,263.82
2018-12-11T10:51:38.732Z,251.55
2018-12-11T10:54:40.794Z,260.75
2018-12-11T10:57:51.046Z,266.15
2018-12-11T11:01:08.842Z,281.20
2018-12-11T11:04:09.392Z,267.32
2018-12-11T11:07:09.863Z,248.90
2018-12-11T11:10:11.177Z,270.55
2018-12-11T11:13:15.389Z,250.25
2018-12-11T11:16:25.163Z,271.73
2018-12-11T11:19:25.770Z,261.98
2018-12-11T11:22:25.970Z,276.02
2018-12-11T11:25:24.535Z,269.30
2018-12-11T11:28:25.140Z,266.77
2018-12-11T11:31:23.553Z,265.57
2018-12-11T11:34:25.167Z,250.75
2018-12-11T11:37:29.308Z,273.52
2018-12-11T11:40:36.633Z,258.30
2018-12-11T11:43:35.988Z,254.40
2018-12-11T11:46:38.715Z,269.07
2018-12-11T11:49:41.929Z,263.75
2018-12-11T11:52:43.500Z,278.98
2018-12-11T11:55:53.276Z,274.85
2018-12-11T11:59:03.680Z,261.52
2018-12-11T12:02:04.691Z,270.97
2018-12-11T12:05:10.489Z,270.90
2018-12-11T12:08:11.971Z,284.45
2018-12-11T12:11:43.918Z,266.17
2018-12-11T12:14:57.322Z,295.65
2018-12-11T12:17:55.108Z,259.95
2018-12-11T12:20:52.664Z,282.40
2018-12-11T12:23:53.031Z,298.82
2018-12-11T12:26:53.401Z,299.30
2018-12-11T12:29:50.010Z,297.65
2018-12-11T12:32:45.797Z,299.07
2018-12-11T12:35:43.806Z,288.68
2018-12-11T12:38:39.944Z,282.68
2018-12-11T12:41:37.349Z,276.12
2018-12-11T12:44:34.214Z,292.52
2018-12-11T12:47:34.781Z,290.68
2018-12-11T12:50:34.757Z,302.05
2018-12-11T12:53:32.405Z,302.45
2018-12-11T12:56:29.294Z,312.85
2018-12-11T12:59:26.977Z,348.10
2018-12-11T13:02:25.562Z,401.85
2018-12-11T13:05:21.352Z,337.02
2018-12-11T13:08:17.992Z,408.92
2018-12-11T13:11:15.253Z,465.70
2018-12-11T13:14:13.220Z,421.27
2018-12-11T13:17:09.868Z,436.50
2018-12-11T13:20:09.358Z,407.98
2018-12-11T13:23:06.736Z,394.60
2018-12-11T13:26:03.177Z,413.75
2018-12-11T13:28:59.613Z,431.82
2018-12-11T13:31:56.616Z,418.82
2018-12-11T13:34:53.570Z,410.00
2018-12-11T13:37:54.273Z,437.25
2018-12-11T13:40:56.171Z,425.18
2018-12-11T13:43:53.274Z,449.30
2018-12-11T13:46:50.460Z,429.60
2018-12-11T13:49:46.693Z,427.47
2018-12-11T13:52:42.842Z,420.10
2018-12-11T13:55:39.518Z,443.60
2018-12-11T13:58:36.056Z,432.75
2018-12-11T14:01:33.031Z,437.80
2018-12-11T14:04:29.667Z,445.35
2018-12-11T14:07:26.545Z,465.50
2018-12-11T14:10:23.016Z,457.00
2018-12-11T14:13:19.221Z,424.73
2018-12-11T14:16:15.694Z,425.80
2018-12-11T14:19:11.994Z,403.00
2018-12-11T14:22:08.181Z,411.73
2018-12-11T14:25:04.623Z,404.48
2018-12-11T14:28:00.981Z,384.85
2018-12-11T14:30:57.360Z,407.40
2018-12-11T14:33:53.387Z,412.00
2018-12-11T14:36:53.478Z,397.02
2018-12-11T14:39:50.047Z,372.88
2018-12-11T14:42:46.796Z,376.55
2018-12-11T14:45:44.353Z,367.48
2018-12-11T14:48:40.782Z,366.68
2018-12-11T14:51:36.847Z,359.05
2018-12-11T14:54:33.989Z,360.65
2018-12-11T14:57:31.380Z,346.70
2018-12-11T15:00:26.904Z,362.93
2018-12-11T15:03:23.905Z,329.98
2018-12-11T15:06:20.469Z,346.87
2018-12-11T15:09:32.648Z,358.70
2018-12-11T15:12:28.606Z,386.25
2018-12-11T15:15:25.208Z,353.00
2018-12-11T15:18:21.517Z,363.65
2018-12-11T15:21:18.176Z,371.13
2018-12-11T15:24:17.310Z,382.92
2018-12-11T15:27:13.718Z,392.68
2018-12-11T15:30:10.249Z,408.72
2018-12-11T15:33:07.244Z,379.82
2018-12-11T15:36:03.388Z,379.15
2018-12-11T15:38:59.766Z,374.02
2018-12-11T15:41:56.974Z,383.45
2018-12-11T15:44:53.089Z,352.98
2018-12-11T15:47:49.686Z,383.65
2018-12-11T15:50:46.023Z,383.32
2018-12-11T15:53:42.628Z,358.52
2018-12-11T15:56:38.480Z,357.48
2018-12-11T15:59:38.272Z,350.30
2018-12-11T16:02:34.862Z,349.48
2018-12-11T16:05:34.625Z,356.77
2018-12-11T16:08:34.466Z,377.10
2018-12-11T16:11:31.513Z,355.90
2018-12-11T16:14:29.230Z,361.25
2018-12-11T16:17:26.939Z,376.42
2018-12-11T16:20:27.305Z,381.73
2018-12-11T16:23:26.533Z,359.57
2018-12-11T16:26:22.493Z,366.57
2018-12-11T16:29:19.578Z,382.68
2018-12-11T16:32:16.129Z,372.75
2018-12-11T16:35:13.047Z,375.35
2018-12-11T16:38:10.286Z,373.45
2018-12-11T16:41:07.226Z,365.68
2018-12-11T16:44:03.933Z,379.63
2018-12-11T16:46:59.922Z,360.32
2018-12-11T16:49:56.383Z,364.45
2018-12-11T16:52:53.308Z,373.43
2018-12-11T16:55:49.979Z,372.17
2018-12-11T16:58:46.933Z,376.50
2018-12-11T17:01:43.496Z,384.98
2018-12-11T17:04:40.059Z,363.25
2018-12-11T17:07:36.731Z,358.65
2018-12-11T17:10:33.734Z,390.68
2018-12-11T17:13:30.927Z,370.63
2018-12-11T17:16:37.217Z,363.07
2018-12-11T17:19:24.152Z,382.57
2018-12-11T17:22:24.147Z,381.52
2018-12-11T17:25:24.112Z,362.63
2018-12-11T17:28:20.321Z,395.45
2018-12-11T17:31:16.944Z,406.73
2018-12-11T17:34:13.352Z,374.75
2018-12-11T17:37:10.016Z,365.87
2018-12-11T17:40:06.429Z,383.27
2018-12-11T17:43:03.589Z,398.30
2018-12-11T17:45:59.750Z,419.65
2018-12-11T17:48:57.212Z,410.27
2018-12-11T17:51:54.129Z,441.65
2018-12-11T17:54:50.208Z,444.20
2018-12-11T17:57:46.199Z,418.20
2018-12-11T18:00:42.410Z,393.95
2018-12-11T18:03:38.528Z,408.07
2018-12-11T18:06:34.181Z,422.82
2018-12-11T18:09:33.557Z,416.62
2018-12-11T18:12:30.307Z,417.60
2018-12-11T18:15:26.533Z,412.82
2018-12-11T18:18:22.974Z,404.27
2018-12-11T18:21:19.542Z,387.63
2018-12-11T18:24:15.985Z,416.08
2018-12-11T18:27:12.902Z,411.62
2018-12-11T18:30:08.866Z,423.80
2018-12-11T18:33:05.190Z,447.30
2018-12-11T18:36:00.898Z,470.95
2018-12-11T18:38:56.899Z,455.80
2018-12-11T18:41:53.435Z,480.20
2018-12-11T18:44:49.471Z,453.18
2018-12-11T18:47:49.915Z,469.40
2018-12-11T18:50:41.825Z,436.43
2018-12-11T18:53:38.469Z,427.43
2018-12-11T18:56:34.417Z,477.35
2018-12-11T18:59:30.629Z,414.43
2018-12-11T19:02:27.263Z,412.30
2018-12-11T19:05:23.802Z,412.25
2018-12-11T19:08:20.333Z,385.17
2018-12-11T19:11:16.369Z,412.85
2018-12-11T19:14:12.520Z,393.65
2018-12-11T19:17:08.353Z,394.67
2018-12-11T19:20:04.110Z,374.95
2018-12-11T19:23:05.408Z,379.07
2018-12-11T19:26:02.235Z,374.85
2018-12-11T19:28:59.081Z,364.65
2018-12-11T19:31:59.204Z,347.70
2018-12-11T19:34:55.171Z,339.45
2018-12-11T19:37:51.093Z,352.15
2018-12-11T19:40:47.967Z,342.80
2018-12-11T19:43:50.934Z,329.07
2018-12-11T19:46:47.333Z,338.95
2018-12-11T19:49:42.942Z,342.60
2018-12-11T19:52:39.886Z,338.90
2018-12-11T19:55:35.923Z,336.70
2018-12-11T19:58:31.862Z,342.52
2018-12-11T20:01:31.124Z,344.37
2018-12-11T20:04:25.738Z,347.73
2018-12-11T20:07:24.032Z,355.60
2018-12-11T20:10:21.171Z,346.25
2018-12-11T20:13:17.504Z,323.68
2018-12-11T20:16:13.215Z,321.70
2018-12-11T20:19:09.364Z,336.32
2018-12-11T20:22:05.231Z,341.30
2018-12-11T20:25:01.524Z,319.85
2018-12-11T20:27:57.727Z,320.90
2018-12-11T20:30:54.352Z,316.77
2018-12-11T20:33:50.822Z,316.23
2018-12-11T20:36:47.124Z,334.83
2018-12-11T20:39:46.493Z,306.68
2018-12-11T20:42:39.925Z,333.57
2018-12-11T20:45:36.255Z,312.93
2018-12-11T20:48:32.362Z,299.30
2018-12-11T20:51:28.825Z,300.50
2018-12-11T20:54:25.680Z,307.05
2018-12-11T20:57:24.771Z,293.10
2018-12-11T21:00:24.478Z,330.40
2018-12-11T21:03:21.019Z,341.33
2018-12-11T21:06:16.829Z,352.65
2018-12-11T21:09:16.865Z,371.27
2018-12-11T21:12:13.298Z,368.27
2018-12-11T21:15:09.605Z,363.92
2018-12-11T21:18:05.459Z,373.05
2018-12-11T21:21:01.900Z,375.18
2018-12-11T21:23:58.636Z,383.17
2018-12-11T21:26:55.181Z,392.55
2018-12-11T21:29:52.239Z,404.45
2018-12-11T21:32:49.506Z,396.55
2018-12-11T21:35:46.018Z,368.70
2018-12-11T21:38:43.593Z,385.63
2018-12-11T21:41:43.146Z,368.30
2018-12-11T21:44:48.772Z,370.73
2018-12-11T21:47:36.782Z,351.02
2018-12-11T21:50:34.326Z,365.27
2018-12-11T21:53:30.267Z,362.95
2018-12-11T21:56:33.680Z,344.05
2018-12-11T21:59:26.252Z,361.60
2018-12-11T22:02:22.050Z,369.85
2018-12-11T22:05:18.942Z,352.43
2018-12-11T22:08:14.519Z,327.75
2018-12-11T22:11:10.632Z,329.77
2018-12-11T22:14:07.272Z,320.52
2018-12-11T22:17:03.914Z,323.90
2018-12-11T22:20:03.014Z,334.83
2018-12-11T22:22:59.189Z,320.10
2018-12-11T22:25:55.279Z,306.20
2018-12-11T22:28:51.505Z,329.35
2018-12-11T22:31:48.205Z,337.48
2018-12-11T22:34:44.386Z,321.13
2018-12-11T22:37:40.614Z,337.15
2018-12-11T22:40:36.578Z,321.73
2018-12-11T22:43:32.632Z,335.85
2018-12-11T22:46:29.814Z,337.05
2018-12-11T22:49:26.372Z,324.32
2018-12-11T22:52:24.040Z,335.30
2018-12-11T22:55:19.988Z,318.27
2018-12-11T22:58:16.148Z,316.77
2018-12-11T23:01:12.244Z,330.95
2018-12-11T23:04:08.976Z,340.45
2018-12-11T23:07:07.716Z,324.50
2018-12-11T23:10:04.116Z,337.93
2018-12-11T23:13:00.215Z,324.75
2018-12-11T23:15:56.670Z,333.35
2018-12-11T23:18:52.588Z,325.52
2018-12-11T23:21:49.706Z,334.48
2018-12-11T23:24:46.062Z,340.12
2018-12-11T23:27:42.499Z,310.68
2018-12-11T23:30:38.406Z,318.88
2018-12-11T23:33:34.276Z,323.93
2018-12-11T23:36:30.446Z,323.27
2018-12-11T23:39:26.432Z,320.90
2018-12-11T23:42:22.824Z,325.57
2018-12-11T23:45:18.750Z,333.93
2018-12-11T23:48:14.884Z,332.73
2018-12-11T23:51:11.306Z,333.45
2018-12-11T23:54:07.196Z,337.57
2018-12-11T23:57:03.480Z,307.50
2018-12-11T23:59:59.412Z,317.30
